createdAt,value
2019-02-19T00:01:55.205Z,92.40
2019-02-19T00:04:21.843Z,92.80
2019-02-19T00:06:48.504Z,93.10
2019-02-19T00:09:15.029Z,93.70
2019-02-19T00:11:41.818Z,94.10
2019-02-19T00:14:08.549Z,93.50
2019-02-19T00:16:35.258Z,93.00
2019-02-19T00:19:01.938Z,93.20
2019-02-19T00:21:28.525Z,93.00
2019-02-19T00:23:55.060Z,93.30
2019-02-19T00:26:21.642Z,93.20
2019-02-19T00:28:48.208Z,93.80
2019-02-19T00:31:14.804Z,93.70
2019-02-19T00:33:41.401Z,93.40
2019-02-19T00:36:07.990Z,92.80
2019-02-19T00:38:34.529Z,93.20
2019-02-19T00:41:01.094Z,92.70
2019-02-19T00:43:30.869Z,93.40
2019-02-19T00:45:57.398Z,92.90
2019-02-19T00:48:23.950Z,93.20
2019-02-19T00:50:50.518Z,92.80
2019-02-19T00:53:17.052Z,93.10
2019-02-19T00:55:43.598Z,92.40
2019-02-19T00:58:10.148Z,93.00
2019-02-19T01:00:36.707Z,92.70
2019-02-19T01:03:03.244Z,92.20
2019-02-19T01:05:29.986Z,93.40
2019-02-19T01:07:56.515Z,94.00
2019-02-19T01:10:25.729Z,94.10
2019-02-19T01:12:53.743Z,94.20
2019-02-19T01:15:25.420Z,94.30
2019-02-19T01:17:50.529Z,94.70
2019-02-19T01:20:18.545Z,94.50
2019-02-19T01:22:48.671Z,94.00
2019-02-19T01:25:20.946Z,93.10
2019-02-19T01:27:54.315Z,92.70
2019-02-19T01:30:27.528Z,93.50
2019-02-19T01:32:57.342Z,93.90
2019-02-19T01:35:24.396Z,93.00
2019-02-19T01:37:51.736Z,93.70
2019-02-19T01:40:20.010Z,93.60
2019-02-19T01:45:37.895Z,93.40
2019-02-19T01:48:04.921Z,93.00
2019-02-19T01:50:33.779Z,93.70
2019-02-19T01:53:01.476Z,93.30
2019-02-19T01:55:28.277Z,93.50
2019-02-19T01:57:55.547Z,94.30
2019-02-19T02:00:22.093Z,95.10
2019-02-19T02:02:48.692Z,94.90
2019-02-19T02:05:15.270Z,94.90
2019-02-19T02:07:42.783Z,94.70
2019-02-19T02:10:09.338Z,94.40
2019-02-19T02:12:36.010Z,94.00
2019-02-19T02:15:02.675Z,94.40
2019-02-19T02:17:29.449Z,93.60
2019-02-19T02:19:56.035Z,93.60
2019-02-19T02:22:22.608Z,93.90
2019-02-19T02:24:49.172Z,95.20
2019-02-19T02:27:15.844Z,94.70
2019-02-19T02:29:45.504Z,95.00
2019-02-19T02:32:12.039Z,93.30
2019-02-19T02:34:38.592Z,94.90
2019-02-19T02:37:05.166Z,95.10
2019-02-19T02:39:31.733Z,95.50
2019-02-19T02:41:58.701Z,95.90
2019-02-19T02:44:25.287Z,95.50
2019-02-19T02:46:51.907Z,95.20
2019-02-19T02:49:18.552Z,94.70
2019-02-19T02:51:45.167Z,94.90
2019-02-19T02:54:12.825Z,95.10
2019-02-19T02:56:39.387Z,94.90
2019-02-19T02:59:05.974Z,94.80
2019-02-19T03:01:32.530Z,95.10
2019-02-19T03:03:59.086Z,95.60
2019-02-19T03:06:27.575Z,95.10
2019-02-19T03:08:54.217Z,94.90
2019-02-19T03:11:20.792Z,94.80
2019-02-19T03:13:47.439Z,94.40
2019-02-19T03:16:13.995Z,95.20
2019-02-19T03:18:40.561Z,93.80
2019-02-19T03:21:07.163Z,94.90
2019-02-19T03:23:33.761Z,93.30
2019-02-19T03:26:00.341Z,93.90
2019-02-19T03:28:26.916Z,94.10
2019-02-19T03:30:53.477Z,94.30
2019-02-19T03:33:20.024Z,95.50
2019-02-19T03:35:46.598Z,95.80
2019-02-19T03:38:13.173Z,96.50
2019-02-19T03:40:39.754Z,96.40
2019-02-19T03:43:06.306Z,96.10
2019-02-19T03:45:32.865Z,95.60
2019-02-19T03:47:59.430Z,95.70
2019-02-19T03:50:26.016Z,94.90
2019-02-19T03:52:52.565Z,95.20
2019-02-19T03:55:19.155Z,94.70
2019-02-19T03:57:45.780Z,95.10
2019-02-19T04:00:12.435Z,94.50
2019-02-19T04:02:39.085Z,94.20
2019-02-19T04:05:05.683Z,94.10
2019-02-19T04:07:32.326Z,95.00
2019-02-19T04:09:58.931Z,94.80
2019-02-19T04:12:25.519Z,95.80
2019-02-19T04:14:52.056Z,95.60
2019-02-19T04:17:18.605Z,95.60
2019-02-19T04:19:45.178Z,95.20
2019-02-19T04:22:11.742Z,95.90
2019-02-19T04:24:38.291Z,95.70
2019-02-19T04:27:04.939Z,96.00
2019-02-19T04:29:31.594Z,96.00
2019-02-19T04:31:58.164Z,95.10
2019-02-19T04:34:24.997Z,95.00
2019-02-19T04:36:51.820Z,94.70
2019-02-19T04:39:18.385Z,94.50
2019-02-19T04:41:44.963Z,94.40
2019-02-19T04:44:11.589Z,95.30
2019-02-19T04:46:38.191Z,95.60
2019-02-19T04:49:04.854Z,95.50
2019-02-19T04:51:31.391Z,96.30
2019-02-19T04:53:57.934Z,94.50
2019-02-19T04:56:24.502Z,95.70
2019-02-19T04:58:51.120Z,96.40
2019-02-19T05:01:17.707Z,95.40
2019-02-19T05:03:44.283Z,96.80
2019-02-19T05:06:10.844Z,95.80
2019-02-19T05:08:37.416Z,96.30
2019-02-19T05:11:04.238Z,95.50
2019-02-19T05:13:30.991Z,95.20
2019-02-19T05:15:57.629Z,95.40
2019-02-19T05:18:24.348Z,95.60
2019-02-19T05:20:51.083Z,96.00
2019-02-19T05:23:17.757Z,96.30
2019-02-19T05:25:44.333Z,96.00
2019-02-19T05:28:10.898Z,95.90
2019-02-19T05:30:37.502Z,95.90
2019-02-19T05:33:04.092Z,95.60
2019-02-19T05:35:30.654Z,95.00
2019-02-19T05:37:57.210Z,95.40
2019-02-19T05:40:23.786Z,95.30
2019-02-19T05:42:50.338Z,96.00
2019-02-19T05:45:16.898Z,95.10
2019-02-19T05:47:43.487Z,95.60
2019-02-19T05:50:10.042Z,96.00
2019-02-19T05:52:36.591Z,95.80
2019-02-19T05:55:05.474Z,95.60
2019-02-19T05:57:32.062Z,96.20
2019-02-19T05:59:58.625Z,95.50
2019-02-19T06:02:25.213Z,94.80
2019-02-19T06:04:52.871Z,95.00
2019-02-19T06:07:19.428Z,94.80
2019-02-19T06:09:45.999Z,94.70
2019-02-19T06:12:13.813Z,94.90
2019-02-19T06:14:40.586Z,95.90
2019-02-19T06:17:08.104Z,95.50
2019-02-19T06:19:34.640Z,94.90
2019-02-19T06:22:01.186Z,95.20
2019-02-19T06:24:27.736Z,95.00
2019-02-19T06:26:54.301Z,94.80
2019-02-19T06:29:20.871Z,94.60
2019-02-19T06:31:47.450Z,95.00
2019-02-19T06:34:14.367Z,94.90
2019-02-19T06:36:41.218Z,94.30
2019-02-19T06:39:07.768Z,94.70
2019-02-19T06:41:34.313Z,95.20
2019-02-19T06:44:00.865Z,95.00
2019-02-19T06:46:27.419Z,95.40
2019-02-19T06:48:55.167Z,95.70
2019-02-19T06:51:21.710Z,95.80
2019-02-19T06:53:48.262Z,96.20
2019-02-19T06:56:14.788Z,95.90
2019-02-19T06:58:41.328Z,95.60
2019-02-19T07:01:07.894Z,95.60
2019-02-19T07:03:39.093Z,95.40
2019-02-19T07:06:05.703Z,95.40
2019-02-19T07:08:32.276Z,95.20
2019-02-19T07:10:58.844Z,94.90
2019-02-19T07:13:25.439Z,94.70
2019-02-19T07:15:52.039Z,94.60
2019-02-19T07:18:18.573Z,94.40
2019-02-19T07:20:45.164Z,94.60
2019-02-19T07:23:11.708Z,94.40
2019-02-19T07:25:38.262Z,94.70
2019-02-19T07:28:04.843Z,94.40
2019-02-19T07:30:31.402Z,94.70
2019-02-19T07:32:57.921Z,94.60
2019-02-19T07:35:24.486Z,94.10
2019-02-19T07:37:51.060Z,94.20
2019-02-19T07:40:17.627Z,94.20
2019-02-19T07:42:44.126Z,94.50
2019-02-19T07:45:12.083Z,94.30
2019-02-19T07:47:38.639Z,94.50
2019-02-19T07:50:08.012Z,94.10
2019-02-19T07:52:34.570Z,93.90
2019-02-19T07:55:01.098Z,93.80
2019-02-19T07:57:27.667Z,93.70
2019-02-19T07:59:54.206Z,93.70
2019-02-19T08:02:21.875Z,93.90
2019-02-19T08:04:48.423Z,93.60
2019-02-19T08:07:14.995Z,93.50
2019-02-19T08:09:41.582Z,93.50
2019-02-19T08:12:08.133Z,93.20
2019-02-19T08:14:35.171Z,93.30
2019-02-19T08:17:01.734Z,93.50
2019-02-19T08:19:28.899Z,93.10
2019-02-19T08:21:55.489Z,92.70
2019-02-19T08:24:22.017Z,92.30
2019-02-19T08:26:48.597Z,92.30
2019-02-19T08:29:15.150Z,92.40
2019-02-19T08:31:41.740Z,92.30
2019-02-19T08:34:08.301Z,91.30
2019-02-19T08:36:34.857Z,90.10
2019-02-19T08:39:01.436Z,90.00
2019-02-19T08:41:29.959Z,89.10
2019-02-19T08:43:56.529Z,89.00
2019-02-19T08:46:23.076Z,88.10
2019-02-19T08:48:49.619Z,89.90
2019-02-19T08:51:16.177Z,88.30
2019-02-19T08:53:42.720Z,87.20
2019-02-19T08:56:09.300Z,85.60
2019-02-19T08:58:35.852Z,86.80
2019-02-19T09:01:02.381Z,86.90
2019-02-19T09:03:28.929Z,87.80
2019-02-19T09:05:56.711Z,85.80
2019-02-19T09:08:23.869Z,86.00
2019-02-19T09:10:50.428Z,85.80
2019-02-19T09:13:17.132Z,86.10
2019-02-19T09:15:43.739Z,86.80
2019-02-19T09:18:10.333Z,87.10
2019-02-19T09:20:41.506Z,84.40
2019-02-19T09:26:08.169Z,83.60
2019-02-19T09:31:26.050Z,82.00
2019-02-19T09:33:52.588Z,80.00
2019-02-19T09:36:19.163Z,80.20
2019-02-19T09:38:45.710Z,79.40
2019-02-19T09:41:12.266Z,80.90
2019-02-19T09:43:38.863Z,81.70
2019-02-19T09:46:05.432Z,79.00
2019-02-19T09:48:31.991Z,77.90
2019-02-19T09:50:58.546Z,78.00
2019-02-19T09:53:25.211Z,74.60
2019-02-19T09:55:51.752Z,75.00
2019-02-19T09:58:18.310Z,74.10
2019-02-19T10:00:44.871Z,72.80
2019-02-19T10:03:11.523Z,69.90
2019-02-19T10:05:38.086Z,70.40
2019-02-19T10:08:04.748Z,69.50
2019-02-19T10:10:31.336Z,66.70
2019-02-19T10:13:00.769Z,64.40
2019-02-19T10:15:27.646Z,64.30
2019-02-19T10:17:54.334Z,63.70
2019-02-19T10:20:22.066Z,65.50
2019-02-19T10:22:48.639Z,61.20
2019-02-19T10:25:15.207Z,60.20
2019-02-19T10:27:41.857Z,58.20
2019-02-19T10:30:14.371Z,56.10
2019-02-19T10:32:41.838Z,57.40
2019-02-19T10:35:09.943Z,57.10
2019-02-19T10:37:36.517Z,56.00
2019-02-19T10:40:06.053Z,57.40
2019-02-19T10:42:32.776Z,55.70
2019-02-19T10:45:00.572Z,54.60
2019-02-19T10:47:27.177Z,55.30
2019-02-19T10:49:53.755Z,54.60
2019-02-19T10:52:20.373Z,55.20
2019-02-19T10:54:47.023Z,52.90
2019-02-19T10:57:13.579Z,52.00
2019-02-19T10:59:40.140Z,45.50
2019-02-19T11:02:06.719Z,44.20
2019-02-19T11:04:33.299Z,42.40
2019-02-19T11:06:59.878Z,42.60
2019-02-19T11:09:27.086Z,41.80
2019-02-19T11:11:53.681Z,42.50
2019-02-19T11:14:20.318Z,40.90
2019-02-19T11:16:48.759Z,42.60
2019-02-19T11:19:21.778Z,43.00
2019-02-19T11:21:49.971Z,41.50
2019-02-19T11:24:17.901Z,38.70
2019-02-19T11:26:45.348Z,30.50
2019-02-19T11:29:11.964Z,26.40
2019-02-19T11:31:38.569Z,24.70
2019-02-19T11:34:05.130Z,24.20
2019-02-19T11:36:31.704Z,23.00
2019-02-19T11:38:58.386Z,20.00
2019-02-19T11:41:24.935Z,18.70
2019-02-19T11:43:51.508Z,19.00
2019-02-19T11:46:18.077Z,19.50
2019-02-19T11:48:44.650Z,17.60
2019-02-19T11:51:11.231Z,18.00
2019-02-19T11:53:37.819Z,18.10
2019-02-19T11:56:04.331Z,18.10
2019-02-19T11:58:32.073Z,18.60
2019-02-19T12:00:58.644Z,18.40
2019-02-19T12:03:25.199Z,17.70
2019-02-19T12:05:51.741Z,18.90
2019-02-19T12:08:18.288Z,18.40
2019-02-19T12:10:46.054Z,17.30
2019-02-19T12:13:12.681Z,17.30
2019-02-19T12:15:39.248Z,17.40
2019-02-19T12:18:05.821Z,16.30
2019-02-19T12:20:32.413Z,17.20
2019-02-19T12:22:58.973Z,16.80
2019-02-19T12:25:25.563Z,18.20
2019-02-19T12:27:52.095Z,16.90
2019-02-19T12:30:18.880Z,17.70
2019-02-19T12:32:45.417Z,17.50
2019-02-19T12:35:11.998Z,17.50
2019-02-19T12:37:38.678Z,17.80
2019-02-19T12:40:08.149Z,17.00
2019-02-19T12:42:34.683Z,16.10
2019-02-19T12:45:01.258Z,16.10
2019-02-19T12:47:28.002Z,16.60
2019-02-19T12:49:54.564Z,16.20
2019-02-19T12:52:21.114Z,16.80
2019-02-19T12:54:47.768Z,16.40
2019-02-19T12:57:14.741Z,16.60
2019-02-19T12:59:41.465Z,16.10
2019-02-19T13:02:08.023Z,15.10
2019-02-19T13:04:34.595Z,16.40
2019-02-19T13:07:01.152Z,16.80
2019-02-19T13:09:27.739Z,16.50
2019-02-19T13:11:54.282Z,16.80
2019-02-19T13:14:20.841Z,17.20
2019-02-19T13:16:47.415Z,16.30
2019-02-19T13:19:13.968Z,15.80
2019-02-19T13:21:40.812Z,16.60
2019-02-19T13:24:07.334Z,15.90
2019-02-19T13:26:33.981Z,15.20
2019-02-19T13:29:00.571Z,16.80
2019-02-19T13:31:27.139Z,16.70
2019-02-19T13:33:53.681Z,17.10
2019-02-19T13:36:20.256Z,18.40
2019-02-19T13:38:46.821Z,17.90
2019-02-19T13:41:13.397Z,18.20
2019-02-19T13:43:39.980Z,18.20
2019-02-19T13:46:06.547Z,19.20
2019-02-19T13:48:33.111Z,19.00
2019-02-19T13:50:59.688Z,20.00
2019-02-19T13:53:28.142Z,18.40
2019-02-19T13:55:56.607Z,18.60
2019-02-19T13:58:23.197Z,18.50
2019-02-19T14:00:50.663Z,19.90
2019-02-19T14:03:17.229Z,19.10
2019-02-19T14:05:43.784Z,19.40
2019-02-19T14:08:14.468Z,19.80
2019-02-19T14:10:38.710Z,19.50
2019-02-19T14:13:05.261Z,19.20
2019-02-19T14:15:48.752Z,20.00
2019-02-19T14:18:17.209Z,21.10
2019-02-19T14:21:04.061Z,21.30
2019-02-19T14:23:49.130Z,20.30
2019-02-19T14:26:17.609Z,19.70
2019-02-19T14:28:46.157Z,20.60
2019-02-19T14:31:20.945Z,21.10
2019-02-19T14:34:01.538Z,22.10
2019-02-19T14:36:46.853Z,22.50
2019-02-19T14:39:27.576Z,21.60
2019-02-19T14:41:56.067Z,21.90
2019-02-19T14:44:36.768Z,24.00
2019-02-19T14:47:20.554Z,26.50
2019-02-19T14:49:48.993Z,28.60
2019-02-19T14:52:21.412Z,29.60
2019-02-19T14:54:49.886Z,30.20
2019-02-19T14:57:30.616Z,30.30
2019-02-19T15:00:15.870Z,30.80
2019-02-19T15:02:53.589Z,32.40
2019-02-19T15:05:24.938Z,32.20
2019-02-19T15:08:10.240Z,33.10
2019-02-19T15:10:41.743Z,33.80
2019-02-19T15:13:10.207Z,34.20
2019-02-19T15:15:55.157Z,33.50
2019-02-19T15:18:40.352Z,34.00
2019-02-19T15:21:11.812Z,34.30
2019-02-19T15:23:43.406Z,35.10
2019-02-19T15:26:18.167Z,35.40
2019-02-19T15:28:52.580Z,35.40
2019-02-19T15:31:27.129Z,35.80
2019-02-19T15:34:13.774Z,36.00
2019-02-19T15:36:52.939Z,36.20
2019-02-19T15:39:27.415Z,36.60
2019-02-19T15:42:05.832Z,36.60
2019-02-19T15:44:34.301Z,37.20
2019-02-19T15:47:23.955Z,37.40
2019-02-19T15:50:01.573Z,38.00
2019-02-19T15:52:48.057Z,37.90
2019-02-19T15:55:16.508Z,37.50
2019-02-19T15:57:49.162Z,37.90
2019-02-19T16:03:21.472Z,38.40
2019-02-19T16:05:59.290Z,38.70
2019-02-19T16:08:27.895Z,38.80
2019-02-19T16:10:57.374Z,39.00
2019-02-19T16:16:44.698Z,40.40
2019-02-19T16:19:32.671Z,40.80
2019-02-19T16:22:02.383Z,41.70
2019-02-19T16:24:44.453Z,42.40
2019-02-19T16:27:16.904Z,43.20
2019-02-19T16:29:49.479Z,44.40
2019-02-19T16:32:31.654Z,44.60
2019-02-19T16:35:01.441Z,45.10
2019-02-19T16:40:40.143Z,46.70
2019-02-19T16:43:11.404Z,48.40
2019-02-19T16:46:04.230Z,49.80
2019-02-19T16:54:45.143Z,52.10
2019-02-19T16:57:14.403Z,53.00
2019-02-19T17:00:10.840Z,53.50
2019-02-19T17:02:39.389Z,54.10
2019-02-19T17:08:28.750Z,55.40
2019-02-19T17:13:58.702Z,55.80
2019-02-19T17:20:00.246Z,57.40
2019-02-19T17:22:32.704Z,59.00
2019-02-19T17:25:14.976Z,60.40
2019-02-19T17:27:46.603Z,61.20
2019-02-19T17:30:18.211Z,61.80
2019-02-19T17:32:46.846Z,64.50
2019-02-19T17:38:39.899Z,67.60
2019-02-19T17:41:19.724Z,67.20
2019-02-19T17:46:55.313Z,69.50
2019-02-19T17:49:31.631Z,70.00
2019-02-19T17:52:11.330Z,69.40
2019-02-19T17:54:42.734Z,69.30
2019-02-19T17:57:11.567Z,71.30
2019-02-19T17:59:46.092Z,71.70
2019-02-19T18:02:14.759Z,72.30
2019-02-19T18:04:46.327Z,73.10
2019-02-19T18:07:15.092Z,73.70
2019-02-19T18:09:43.982Z,73.90
2019-02-19T18:12:12.863Z,74.20
2019-02-19T18:14:41.635Z,75.80
2019-02-19T18:17:12.934Z,75.30
2019-02-19T18:19:39.576Z,77.10
2019-02-19T18:22:06.105Z,77.90
2019-02-19T18:24:32.661Z,79.00
2019-02-19T18:26:59.249Z,77.50
2019-02-19T18:29:25.800Z,77.10
2019-02-19T18:31:52.390Z,77.30
2019-02-19T18:34:18.945Z,77.80
2019-02-19T18:36:45.537Z,77.50
2019-02-19T18:39:12.303Z,77.60
2019-02-19T18:41:39.303Z,77.10
2019-02-19T18:44:05.892Z,78.30
2019-02-19T18:46:32.478Z,78.30
2019-02-19T18:48:59.031Z,79.00
2019-02-19T18:51:25.599Z,78.60
2019-02-19T18:53:52.223Z,77.60
2019-02-19T18:56:18.847Z,78.00
2019-02-19T18:58:45.583Z,79.40
2019-02-19T19:01:12.189Z,80.40
2019-02-19T19:03:38.972Z,80.90
2019-02-19T19:06:06.851Z,81.80
2019-02-19T19:08:33.505Z,82.60
2019-02-19T19:11:01.406Z,84.20
2019-02-19T19:13:28.006Z,84.00
2019-02-19T19:15:54.672Z,84.00
2019-02-19T19:18:21.290Z,85.00
2019-02-19T19:20:47.840Z,83.90
2019-02-19T19:23:14.455Z,84.30
2019-02-19T19:25:41.002Z,84.00
2019-02-19T19:28:07.608Z,83.60
2019-02-19T19:30:34.183Z,84.10
2019-02-19T19:33:00.742Z,85.20
2019-02-19T19:35:27.411Z,87.80
2019-02-19T19:37:54.247Z,87.10
2019-02-19T19:40:20.930Z,87.10
2019-02-19T19:42:47.610Z,87.80
2019-02-19T19:45:14.231Z,89.20
2019-02-19T19:47:40.804Z,89.30
2019-02-19T19:50:08.878Z,88.90
2019-02-19T19:52:35.568Z,88.90
2019-02-19T19:55:02.210Z,88.60
2019-02-19T19:57:28.915Z,89.00
2019-02-19T19:59:55.523Z,90.10
2019-02-19T20:02:22.126Z,88.90
2019-02-19T20:04:48.816Z,88.50
2019-02-19T20:07:15.423Z,88.40
2019-02-19T20:09:42.108Z,88.60
2019-02-19T20:12:08.789Z,90.20
2019-02-19T20:14:35.421Z,89.70
2019-02-19T20:17:02.039Z,90.20
2019-02-19T20:19:28.711Z,90.40
2019-02-19T20:21:55.324Z,89.00
2019-02-19T20:24:21.967Z,91.70
2019-02-19T20:26:48.674Z,90.90
2019-02-19T20:29:15.296Z,90.80
2019-02-19T20:31:42.003Z,88.60
2019-02-19T20:34:08.683Z,90.60
2019-02-19T20:36:35.366Z,92.20
2019-02-19T20:39:02.438Z,91.70
2019-02-19T20:41:30.901Z,91.10
2019-02-19T20:43:57.554Z,91.00
2019-02-19T20:46:24.246Z,92.20
2019-02-19T20:48:50.972Z,91.50
2019-02-19T20:51:17.561Z,90.80
2019-02-19T20:53:44.114Z,90.70
2019-02-19T20:56:10.779Z,91.40
2019-02-19T20:58:37.450Z,91.80
2019-02-19T21:01:04.034Z,91.90
2019-02-19T21:03:30.937Z,92.40
2019-02-19T21:05:57.542Z,92.50
2019-02-19T21:08:24.233Z,91.20
2019-02-19T21:10:50.871Z,92.70
2019-02-19T21:13:17.450Z,93.00
2019-02-19T21:15:44.090Z,92.50
2019-02-19T21:18:10.878Z,92.80
2019-02-19T21:20:37.462Z,91.90
2019-02-19T21:23:04.456Z,92.10
2019-02-19T21:25:31.389Z,91.90
2019-02-19T21:27:58.203Z,92.50
2019-02-19T21:30:24.901Z,92.70
2019-02-19T21:32:51.667Z,92.60
2019-02-19T21:35:18.331Z,93.20
2019-02-19T21:37:44.981Z,92.00
2019-02-19T21:40:15.062Z,92.70
2019-02-19T21:42:42.023Z,92.70
2019-02-19T21:45:11.270Z,91.90
2019-02-19T21:47:39.177Z,93.00
2019-02-19T21:50:08.685Z,92.60
2019-02-19T21:52:35.482Z,93.70
2019-02-19T21:55:04.552Z,93.10
2019-02-19T21:57:31.922Z,93.30
2019-02-19T21:59:58.553Z,92.10
2019-02-19T22:02:25.229Z,92.00
2019-02-19T22:04:51.981Z,92.90
2019-02-19T22:07:18.634Z,92.70
2019-02-19T22:09:45.401Z,92.60
2019-02-19T22:12:11.966Z,93.30
2019-02-19T22:14:38.613Z,92.40
2019-02-19T22:17:06.382Z,93.10
2019-02-19T22:19:33.070Z,93.40
2019-02-19T22:22:03.461Z,92.40
2019-02-19T22:24:36.074Z,92.10
2019-02-19T22:27:04.430Z,91.90
2019-02-19T22:29:31.198Z,93.00
2019-02-19T22:31:57.786Z,93.40
2019-02-19T22:34:24.368Z,93.70
2019-02-19T22:36:50.985Z,93.80
2019-02-19T22:39:17.530Z,93.30
2019-02-19T22:41:44.060Z,93.70
2019-02-19T22:44:11.605Z,93.20
2019-02-19T22:46:38.272Z,93.20
2019-02-19T22:49:04.843Z,92.70
2019-02-19T22:51:31.420Z,93.10
2019-02-19T22:54:02.894Z,92.90
2019-02-19T22:56:31.359Z,93.40
2019-02-19T22:58:58.229Z,93.00
2019-02-19T23:01:27.184Z,92.80
2019-02-19T23:03:54.524Z,92.90
2019-02-19T23:06:21.183Z,93.30
2019-02-19T23:08:47.762Z,93.20
2019-02-19T23:11:14.302Z,93.00
2019-02-19T23:13:40.958Z,93.50
2019-02-19T23:16:07.517Z,93.00
2019-02-19T23:18:34.035Z,92.80
2019-02-19T23:21:00.591Z,92.60
2019-02-19T23:23:27.243Z,93.00
2019-02-19T23:25:53.886Z,93.00
2019-02-19T23:28:20.469Z,92.10
2019-02-19T23:30:47.131Z,92.90
2019-02-19T23:33:13.821Z,92.60
2019-02-19T23:35:48.119Z,92.70
2019-02-19T23:38:14.678Z,92.60
2019-02-19T23:40:41.248Z,93.60
2019-02-19T23:43:07.834Z,93.40
2019-02-19T23:45:34.684Z,92.20
2019-02-19T23:48:01.421Z,94.80
2019-02-19T23:50:28.099Z,95.00
2019-02-19T23:52:54.691Z,94.20
2019-02-19T23:55:21.269Z,94.40
2019-02-19T23:57:47.837Z,95.00
